sensor_id;sensor_type;location;lat;lon;timestamp;P1;durP1;ratioP1;P2;durP2;ratioP2
50363;SDS011;36272;59.400;17.982;2022-08-16T00:04:49;23.55;;;16.15;;
50363;SDS011;36272;59.400;17.982;2022-08-16T00:09:51;20.13;;;15.48;;
50363;SDS011;36272;59.400;17.982;2022-08-16T00:14:53;19.00;;;14.20;;
50363;SDS011;36272;59.400;17.982;2022-08-16T00:19:56;22.42;;;15.57;;
50363;SDS011;36272;59.400;17.982;2022-08-16T00:24:57;24.95;;;16.73;;
50363;SDS011;36272;59.400;17.982;2022-08-16T00:29:59;21.58;;;14.07;;
50363;SDS011;36272;59.400;17.982;2022-08-16T00:35:01;22.88;;;15.80;;
50363;SDS011;36272;59.400;17.982;2022-08-16T00:40:03;23.00;;;17.40;;
50363;SDS011;36272;59.400;17.982;2022-08-16T00:45:12;24.80;;;18.55;;
50363;SDS011;36272;59.400;17.982;2022-08-16T00:50:20;26.15;;;17.20;;
50363;SDS011;36272;59.400;17.982;2022-08-16T00:55:24;21.00;;;16.40;;
50363;SDS011;36272;59.400;17.982;2022-08-16T01:00:29;22.88;;;17.05;;
50363;SDS011;36272;59.400;17.982;2022-08-16T01:05:33;23.23;;;15.68;;
50363;SDS011;36272;59.400;17.982;2022-08-16T01:10:35;24.13;;;16.45;;
50363;SDS011;36272;59.400;17.982;2022-08-16T01:15:38;25.45;;;18.17;;
50363;SDS011;36272;59.400;17.982;2022-08-16T01:20:57;23.67;;;17.20;;
50363;SDS011;36272;59.400;17.982;2022-08-16T01:26:04;24.15;;;17.85;;
50363;SDS011;36272;59.400;17.982;2022-08-16T01:31:06;27.30;;;18.45;;
50363;SDS011;36272;59.400;17.982;2022-08-16T01:36:10;23.73;;;17.95;;
50363;SDS011;36272;59.400;17.982;2022-08-16T01:41:14;25.75;;;17.98;;
50363;SDS011;36272;59.400;17.982;2022-08-16T01:46:22;26.42;;;17.65;;
50363;SDS011;36272;59.400;17.982;2022-08-16T01:51:32;24.85;;;15.52;;
50363;SDS011;36272;59.400;17.982;2022-08-16T01:56:34;24.33;;;17.63;;
50363;SDS011;36272;59.400;17.982;2022-08-16T02:01:36;28.60;;;19.55;;
50363;SDS011;36272;59.400;17.982;2022-08-16T02:06:39;26.73;;;17.92;;
50363;SDS011;36272;59.400;17.982;2022-08-16T02:11:42;26.27;;;18.40;;
50363;SDS011;36272;59.400;17.982;2022-08-16T02:16:45;29.55;;;19.63;;
50363;SDS011;36272;59.400;17.982;2022-08-16T02:21:48;32.00;;;20.13;;
50363;SDS011;36272;59.400;17.982;2022-08-16T02:26:52;33.90;;;21.35;;
50363;SDS011;36272;59.400;17.982;2022-08-16T02:31:54;34.22;;;20.85;;
50363;SDS011;36272;59.400;17.982;2022-08-16T02:36:56;31.85;;;19.73;;
50363;SDS011;36272;59.400;17.982;2022-08-16T02:41:57;26.60;;;19.20;;
50363;SDS011;36272;59.400;17.982;2022-08-16T02:46:59;29.00;;;19.48;;
50363;SDS011;36272;59.400;17.982;2022-08-16T02:52:00;27.38;;;18.70;;
50363;SDS011;36272;59.400;17.982;2022-08-16T02:57:02;27.67;;;19.70;;
50363;SDS011;36272;59.400;17.982;2022-08-16T03:02:04;27.92;;;19.15;;
50363;SDS011;36272;59.400;17.982;2022-08-16T03:07:06;21.20;;;15.93;;
50363;SDS011;36272;59.400;17.982;2022-08-16T03:12:08;32.83;;;18.85;;
50363;SDS011;36272;59.400;17.982;2022-08-16T03:17:09;28.85;;;19.88;;
50363;SDS011;36272;59.400;17.982;2022-08-16T03:22:11;26.73;;;20.25;;
50363;SDS011;36272;59.400;17.982;2022-08-16T03:27:13;27.58;;;18.23;;
50363;SDS011;36272;59.400;17.982;2022-08-16T03:32:14;24.38;;;18.58;;
50363;SDS011;36272;59.400;17.982;2022-08-16T03:37:16;26.27;;;18.17;;
50363;SDS011;36272;59.400;17.982;2022-08-16T03:42:18;26.00;;;18.10;;
50363;SDS011;36272;59.400;17.982;2022-08-16T03:47:19;31.67;;;20.75;;
50363;SDS011;36272;59.400;17.982;2022-08-16T03:52:22;30.92;;;19.55;;
50363;SDS011;36272;59.400;17.982;2022-08-16T03:57:25;33.88;;;20.83;;
50363;SDS011;36272;59.400;17.982;2022-08-16T04:02:28;30.17;;;19.77;;
50363;SDS011;36272;59.400;17.982;2022-08-16T04:07:29;29.10;;;19.20;;
50363;SDS011;36272;59.400;17.982;2022-08-16T04:12:31;30.27;;;20.42;;
50363;SDS011;36272;59.400;17.982;2022-08-16T04:17:33;28.77;;;20.60;;
50363;SDS011;36272;59.400;17.982;2022-08-16T04:22:35;28.27;;;19.33;;
50363;SDS011;36272;59.400;17.982;2022-08-16T04:27:39;25.08;;;19.50;;
50363;SDS011;36272;59.400;17.982;2022-08-16T04:32:40;28.60;;;20.65;;
50363;SDS011;36272;59.400;17.982;2022-08-16T04:37:46;35.97;;;20.65;;
50363;SDS011;36272;59.400;17.982;2022-08-16T04:42:49;28.60;;;18.98;;
50363;SDS011;36272;59.400;17.982;2022-08-16T04:47:51;28.77;;;19.15;;
50363;SDS011;36272;59.400;17.982;2022-08-16T04:52:53;29.15;;;18.75;;
50363;SDS011;36272;59.400;17.982;2022-08-16T04:57:55;29.25;;;18.40;;
50363;SDS011;36272;59.400;17.982;2022-08-16T05:02:57;35.30;;;18.48;;
50363;SDS011;36272;59.400;17.982;2022-08-16T05:07:59;26.67;;;18.58;;
50363;SDS011;36272;59.400;17.982;2022-08-16T05:13:01;23.33;;;16.73;;
50363;SDS011;36272;59.400;17.982;2022-08-16T05:18:04;31.23;;;17.15;;
50363;SDS011;36272;59.400;17.982;2022-08-16T05:23:06;28.08;;;17.27;;
50363;SDS011;36272;59.400;17.982;2022-08-16T05:28:07;28.20;;;16.92;;
50363;SDS011;36272;59.400;17.982;2022-08-16T05:33:12;24.88;;;16.77;;
50363;SDS011;36272;59.400;17.982;2022-08-16T05:38:14;24.95;;;16.48;;
50363;SDS011;36272;59.400;17.982;2022-08-16T05:43:16;23.30;;;15.95;;
50363;SDS011;36272;59.400;17.982;2022-08-16T05:48:17;26.55;;;15.90;;
50363;SDS011;36272;59.400;17.982;2022-08-16T05:53:19;28.17;;;15.80;;
50363;SDS011;36272;59.400;17.982;2022-08-16T05:58:21;30.55;;;15.45;;
50363;SDS011;36272;59.400;17.982;2022-08-16T06:03:23;23.17;;;14.25;;
50363;SDS011;36272;59.400;17.982;2022-08-16T06:08:25;24.70;;;14.35;;
50363;SDS011;36272;59.400;17.982;2022-08-16T06:13:27;28.08;;;14.00;;
50363;SDS011;36272;59.400;17.982;2022-08-16T06:18:28;22.35;;;13.45;;
50363;SDS011;36272;59.400;17.982;2022-08-16T06:23:30;26.17;;;14.40;;
50363;SDS011;36272;59.400;17.982;2022-08-16T06:28:32;27.08;;;14.48;;
50363;SDS011;36272;59.400;17.982;2022-08-16T06:33:34;30.30;;;14.25;;
50363;SDS011;36272;59.400;17.982;2022-08-16T06:38:36;18.33;;;11.18;;
50363;SDS011;36272;59.400;17.982;2022-08-16T06:43:37;22.33;;;12.63;;
50363;SDS011;36272;59.400;17.982;2022-08-16T06:48:39;21.30;;;13.35;;
50363;SDS011;36272;59.400;17.982;2022-08-16T06:53:41;25.17;;;12.52;;
50363;SDS011;36272;59.400;17.982;2022-08-16T06:58:43;27.55;;;13.20;;
50363;SDS011;36272;59.400;17.982;2022-08-16T07:03:45;23.38;;;12.43;;
50363;SDS011;36272;59.400;17.982;2022-08-16T07:08:48;26.80;;;12.95;;
50363;SDS011;36272;59.400;17.982;2022-08-16T07:13:49;27.02;;;12.85;;
50363;SDS011;36272;59.400;17.982;2022-08-16T07:18:52;29.23;;;12.82;;
50363;SDS011;36272;59.400;17.982;2022-08-16T07:23:54;20.10;;;11.15;;
50363;SDS011;36272;59.400;17.982;2022-08-16T07:28:55;23.40;;;11.95;;
50363;SDS011;36272;59.400;17.982;2022-08-16T07:33:57;22.88;;;12.85;;
50363;SDS011;36272;59.400;17.982;2022-08-16T07:38:59;22.98;;;11.98;;
50363;SDS011;36272;59.400;17.982;2022-08-16T07:44:00;20.98;;;11.90;;
50363;SDS011;36272;59.400;17.982;2022-08-16T07:49:03;28.85;;;12.27;;
50363;SDS011;36272;59.400;17.982;2022-08-16T07:54:06;23.83;;;11.25;;
50363;SDS011;36272;59.400;17.982;2022-08-16T07:59:09;20.13;;;11.68;;
50363;SDS011;36272;59.400;17.982;2022-08-16T08:04:11;15.95;;;11.15;;
50363;SDS011;36272;59.400;17.982;2022-08-16T08:09:14;26.35;;;11.25;;
50363;SDS011;36272;59.400;17.982;2022-08-16T08:14:15;22.30;;;12.05;;
50363;SDS011;36272;59.400;17.982;2022-08-16T08:19:17;20.58;;;11.82;;
50363;SDS011;36272;59.400;17.982;2022-08-16T08:24:19;19.75;;;10.70;;
50363;SDS011;36272;59.400;17.982;2022-08-16T08:29:22;20.13;;;10.68;;
50363;SDS011;36272;59.400;17.982;2022-08-16T08:34:24;19.85;;;11.32;;
50363;SDS011;36272;59.400;17.982;2022-08-16T08:39:26;22.92;;;10.43;;
50363;SDS011;36272;59.400;17.982;2022-08-16T08:44:28;27.75;;;11.75;;
50363;SDS011;36272;59.400;17.982;2022-08-16T08:49:30;31.67;;;11.13;;
50363;SDS011;36272;59.400;17.982;2022-08-16T08:54:31;20.25;;;11.18;;
50363;SDS011;36272;59.400;17.982;2022-08-16T08:59:38;24.52;;;11.07;;
50363;SDS011;36272;59.400;17.982;2022-08-16T09:04:40;25.92;;;11.38;;
50363;SDS011;36272;59.400;17.982;2022-08-16T09:09:42;21.55;;;11.10;;
50363;SDS011;36272;59.400;17.982;2022-08-16T09:14:44;21.35;;;10.57;;
50363;SDS011;36272;59.400;17.982;2022-08-16T09:19:45;15.57;;;9.75;;
50363;SDS011;36272;59.400;17.982;2022-08-16T09:24:48;14.48;;;9.63;;
50363;SDS011;36272;59.400;17.982;2022-08-16T09:29:50;19.23;;;10.10;;
50363;SDS011;36272;59.400;17.982;2022-08-16T09:34:52;13.20;;;8.77;;
50363;SDS011;36272;59.400;17.982;2022-08-16T09:39:54;22.92;;;9.93;;
50363;SDS011;36272;59.400;17.982;2022-08-16T09:44:56;14.55;;;9.18;;
50363;SDS011;36272;59.400;17.982;2022-08-16T09:49:58;21.85;;;9.18;;
50363;SDS011;36272;59.400;17.982;2022-08-16T09:55:00;24.90;;;10.35;;
50363;SDS011;36272;59.400;17.982;2022-08-16T10:00:04;21.75;;;9.88;;
50363;SDS011;36272;59.400;17.982;2022-08-16T10:05:08;18.67;;;10.02;;
50363;SDS011;36272;59.400;17.982;2022-08-16T10:10:14;21.70;;;10.02;;
50363;SDS011;36272;59.400;17.982;2022-08-16T10:15:17;22.20;;;10.55;;
50363;SDS011;36272;59.400;17.982;2022-08-16T10:20:23;18.92;;;10.45;;
50363;SDS011;36272;59.400;17.982;2022-08-16T10:25:25;25.42;;;10.02;;
50363;SDS011;36272;59.400;17.982;2022-08-16T10:30:27;15.85;;;10.13;;
50363;SDS011;36272;59.400;17.982;2022-08-16T10:35:29;17.63;;;10.27;;
50363;SDS011;36272;59.400;17.982;2022-08-16T10:40:31;17.83;;;9.73;;
50363;SDS011;36272;59.400;17.982;2022-08-16T10:45:33;19.25;;;9.63;;
50363;SDS011;36272;59.400;17.982;2022-08-16T10:50:35;16.67;;;9.27;;
50363;SDS011;36272;59.400;17.982;2022-08-16T10:55:39;18.23;;;9.95;;
50363;SDS011;36272;59.400;17.982;2022-08-16T11:00:42;25.90;;;9.02;;
50363;SDS011;36272;59.400;17.982;2022-08-16T11:05:45;17.80;;;9.30;;
50363;SDS011;36272;59.400;17.982;2022-08-16T11:10:47;13.55;;;8.40;;
50363;SDS011;36272;59.400;17.982;2022-08-16T11:15:49;19.58;;;9.65;;
50363;SDS011;36272;59.400;17.982;2022-08-16T11:20:52;13.85;;;9.00;;
50363;SDS011;36272;59.400;17.982;2022-08-16T11:25:53;11.65;;;7.72;;
50363;SDS011;36272;59.400;17.982;2022-08-16T11:30:56;15.65;;;8.35;;
50363;SDS011;36272;59.400;17.982;2022-08-16T11:35:58;17.23;;;8.73;;
50363;SDS011;36272;59.400;17.982;2022-08-16T11:40:59;20.80;;;8.93;;
50363;SDS011;36272;59.400;17.982;2022-08-16T11:46:03;17.65;;;8.15;;
50363;SDS011;36272;59.400;17.982;2022-08-16T11:51:07;17.05;;;8.25;;
50363;SDS011;36272;59.400;17.982;2022-08-16T11:56:09;11.88;;;7.60;;
50363;SDS011;36272;59.400;17.982;2022-08-16T12:01:11;12.55;;;7.85;;
50363;SDS011;36272;59.400;17.982;2022-08-16T12:06:16;15.88;;;8.18;;
50363;SDS011;36272;59.400;17.982;2022-08-16T12:11:19;11.73;;;7.55;;
50363;SDS011;36272;59.400;17.982;2022-08-16T12:16:20;14.05;;;7.35;;
50363;SDS011;36272;59.400;17.982;2022-08-16T12:21:22;9.85;;;6.78;;
50363;SDS011;36272;59.400;17.982;2022-08-16T12:26:24;16.35;;;7.70;;
50363;SDS011;36272;59.400;17.982;2022-08-16T12:31:26;11.80;;;7.63;;
50363;SDS011;36272;59.400;17.982;2022-08-16T12:36:28;10.90;;;6.68;;
50363;SDS011;36272;59.400;17.982;2022-08-16T12:41:29;16.52;;;7.60;;
50363;SDS011;36272;59.400;17.982;2022-08-16T12:46:32;13.68;;;8.35;;
50363;SDS011;36272;59.400;17.982;2022-08-16T12:51:35;14.80;;;8.95;;
50363;SDS011;36272;59.400;17.982;2022-08-16T12:56:41;17.83;;;8.95;;
50363;SDS011;36272;59.400;17.982;2022-08-16T13:01:43;18.55;;;8.48;;
50363;SDS011;36272;59.400;17.982;2022-08-16T13:06:48;20.92;;;7.82;;
50363;SDS011;36272;59.400;17.982;2022-08-16T13:17:09;15.40;;;7.95;;
50363;SDS011;36272;59.400;17.982;2022-08-16T13:22:13;15.85;;;7.80;;
50363;SDS011;36272;59.400;17.982;2022-08-16T13:27:15;15.75;;;8.00;;
50363;SDS011;36272;59.400;17.982;2022-08-16T13:32:16;13.85;;;6.97;;
50363;SDS011;36272;59.400;17.982;2022-08-16T13:37:18;17.02;;;8.38;;
50363;SDS011;36272;59.400;17.982;2022-08-16T13:42:20;13.82;;;7.97;;
50363;SDS011;36272;59.400;17.982;2022-08-16T13:47:22;17.52;;;8.52;;
50363;SDS011;36272;59.400;17.982;2022-08-16T13:52:24;15.07;;;7.53;;
50363;SDS011;36272;59.400;17.982;2022-08-16T13:57:25;20.55;;;8.88;;
50363;SDS011;36272;59.400;17.982;2022-08-16T14:02:27;14.05;;;8.30;;
50363;SDS011;36272;59.400;17.982;2022-08-16T14:07:30;11.68;;;8.23;;
50363;SDS011;36272;59.400;17.982;2022-08-16T14:12:32;21.20;;;9.30;;
50363;SDS011;36272;59.400;17.982;2022-08-16T14:17:34;21.63;;;8.50;;
50363;SDS011;36272;59.400;17.982;2022-08-16T14:22:38;12.35;;;7.47;;
50363;SDS011;36272;59.400;17.982;2022-08-16T14:27:41;19.63;;;8.23;;
50363;SDS011;36272;59.400;17.982;2022-08-16T14:32:43;12.52;;;8.55;;
50363;SDS011;36272;59.400;17.982;2022-08-16T14:42:47;15.23;;;8.32;;
50363;SDS011;36272;59.400;17.982;2022-08-16T14:47:50;18.40;;;8.00;;
50363;SDS011;36272;59.400;17.982;2022-08-16T14:52:55;17.92;;;7.60;;
50363;SDS011;36272;59.400;17.982;2022-08-16T14:58:02;11.38;;;8.18;;
50363;SDS011;36272;59.400;17.982;2022-08-16T15:03:06;20.75;;;8.45;;
50363;SDS011;36272;59.400;17.982;2022-08-16T15:08:09;12.98;;;8.18;;
50363;SDS011;36272;59.400;17.982;2022-08-16T15:13:11;14.13;;;8.70;;
50363;SDS011;36272;59.400;17.982;2022-08-16T15:18:13;12.70;;;8.10;;
50363;SDS011;36272;59.400;17.982;2022-08-16T15:23:16;20.67;;;8.55;;
50363;SDS011;36272;59.400;17.982;2022-08-16T15:28:17;16.55;;;8.52;;
50363;SDS011;36272;59.400;17.982;2022-08-16T15:33:19;12.20;;;8.52;;
50363;SDS011;36272;59.400;17.982;2022-08-16T15:38:25;20.80;;;8.35;;
50363;SDS011;36272;59.400;17.982;2022-08-16T15:43:27;17.30;;;8.63;;
50363;SDS011;36272;59.400;17.982;2022-08-16T15:48:34;13.57;;;8.70;;
50363;SDS011;36272;59.400;17.982;2022-08-16T15:53:36;17.23;;;8.57;;
50363;SDS011;36272;59.400;17.982;2022-08-16T15:58:37;18.13;;;8.55;;
50363;SDS011;36272;59.400;17.982;2022-08-16T16:03:39;19.58;;;8.93;;
50363;SDS011;36272;59.400;17.982;2022-08-16T16:08:41;16.73;;;8.73;;
50363;SDS011;36272;59.400;17.982;2022-08-16T16:13:42;15.13;;;9.10;;
50363;SDS011;36272;59.400;17.982;2022-08-16T16:18:47;20.42;;;9.40;;
50363;SDS011;36272;59.400;17.982;2022-08-16T16:23:49;28.35;;;9.82;;
50363;SDS011;36272;59.400;17.982;2022-08-16T16:28:51;23.13;;;9.68;;
50363;SDS011;36272;59.400;17.982;2022-08-16T16:33:53;20.00;;;10.38;;
50363;SDS011;36272;59.400;17.982;2022-08-16T16:38:58;19.65;;;9.32;;
50363;SDS011;36272;59.400;17.982;2022-08-16T16:44:01;27.25;;;9.60;;
50363;SDS011;36272;59.400;17.982;2022-08-16T16:49:05;15.32;;;9.25;;
50363;SDS011;36272;59.400;17.982;2022-08-16T16:54:08;18.40;;;9.85;;
50363;SDS011;36272;59.400;17.982;2022-08-16T16:59:15;23.60;;;9.88;;
50363;SDS011;36272;59.400;17.982;2022-08-16T17:04:20;20.30;;;9.82;;
50363;SDS011;36272;59.400;17.982;2022-08-16T17:09:24;14.10;;;9.50;;
50363;SDS011;36272;59.400;17.982;2022-08-16T17:14:25;24.13;;;12.88;;
50363;SDS011;36272;59.400;17.982;2022-08-16T17:19:28;17.80;;;10.02;;
50363;SDS011;36272;59.400;17.982;2022-08-16T17:24:29;15.68;;;10.70;;
50363;SDS011;36272;59.400;17.982;2022-08-16T17:29:31;16.83;;;8.75;;
50363;SDS011;36272;59.400;17.982;2022-08-16T17:34:32;18.65;;;9.98;;
50363;SDS011;36272;59.400;17.982;2022-08-16T17:39:35;19.27;;;9.73;;
50363;SDS011;36272;59.400;17.982;2022-08-16T17:44:37;18.20;;;9.82;;
50363;SDS011;36272;59.400;17.982;2022-08-16T17:49:39;25.05;;;10.43;;
50363;SDS011;36272;59.400;17.982;2022-08-16T17:54:41;18.70;;;10.05;;
50363;SDS011;36272;59.400;17.982;2022-08-16T17:59:43;20.63;;;9.70;;
50363;SDS011;36272;59.400;17.982;2022-08-16T18:04:44;20.63;;;9.68;;
50363;SDS011;36272;59.400;17.982;2022-08-16T18:09:46;15.13;;;9.27;;
50363;SDS011;36272;59.400;17.982;2022-08-16T18:14:48;13.35;;;9.90;;
50363;SDS011;36272;59.400;17.982;2022-08-16T18:19:50;22.92;;;11.32;;
50363;SDS011;36272;59.400;17.982;2022-08-16T18:24:51;29.33;;;10.82;;
50363;SDS011;36272;59.400;17.982;2022-08-16T18:29:54;16.92;;;10.80;;
50363;SDS011;36272;59.400;17.982;2022-08-16T18:34:55;15.95;;;10.65;;
50363;SDS011;36272;59.400;17.982;2022-08-16T18:39:57;17.73;;;11.05;;
50363;SDS011;36272;59.400;17.982;2022-08-16T18:45:00;22.38;;;11.57;;
50363;SDS011;36272;59.400;17.982;2022-08-16T18:50:11;17.98;;;11.73;;
50363;SDS011;36272;59.400;17.982;2022-08-16T18:55:12;13.57;;;11.13;;
50363;SDS011;36272;59.400;17.982;2022-08-16T19:00:15;20.80;;;10.65;;
50363;SDS011;36272;59.400;17.982;2022-08-16T19:05:26;15.73;;;10.52;;
50363;SDS011;36272;59.400;17.982;2022-08-16T19:10:31;17.80;;;11.00;;
50363;SDS011;36272;59.400;17.982;2022-08-16T19:15:34;21.55;;;10.90;;
50363;SDS011;36272;59.400;17.982;2022-08-16T19:20:37;19.80;;;11.90;;
50363;SDS011;36272;59.400;17.982;2022-08-16T19:25:43;24.25;;;11.70;;
50363;SDS011;36272;59.400;17.982;2022-08-16T19:30:47;17.95;;;12.43;;
50363;SDS011;36272;59.400;17.982;2022-08-16T19:35:49;20.98;;;11.57;;
50363;SDS011;36272;59.400;17.982;2022-08-16T19:40:51;23.58;;;11.35;;
50363;SDS011;36272;59.400;17.982;2022-08-16T19:45:52;20.20;;;11.40;;
50363;SDS011;36272;59.400;17.982;2022-08-16T19:50:54;15.27;;;11.73;;
50363;SDS011;36272;59.400;17.982;2022-08-16T19:55:56;18.85;;;11.73;;
50363;SDS011;36272;59.400;17.982;2022-08-16T20:00:57;19.30;;;11.43;;
50363;SDS011;36272;59.400;17.982;2022-08-16T20:05:59;23.90;;;12.50;;
50363;SDS011;36272;59.400;17.982;2022-08-16T20:11:01;16.17;;;11.40;;
50363;SDS011;36272;59.400;17.982;2022-08-16T20:16:02;18.15;;;12.45;;
50363;SDS011;36272;59.400;17.982;2022-08-16T20:21:04;19.65;;;12.43;;
50363;SDS011;36272;59.400;17.982;2022-08-16T20:26:06;22.35;;;12.63;;
50363;SDS011;36272;59.400;17.982;2022-08-16T20:31:09;21.25;;;12.18;;
50363;SDS011;36272;59.400;17.982;2022-08-16T20:36:11;18.77;;;12.40;;
50363;SDS011;36272;59.400;17.982;2022-08-16T20:41:14;20.15;;;12.05;;
50363;SDS011;36272;59.400;17.982;2022-08-16T20:46:16;23.65;;;12.25;;
50363;SDS011;36272;59.400;17.982;2022-08-16T20:51:18;22.17;;;12.35;;
50363;SDS011;36272;59.400;17.982;2022-08-16T20:56:20;23.15;;;12.35;;
50363;SDS011;36272;59.400;17.982;2022-08-16T21:01:21;20.30;;;12.77;;
50363;SDS011;36272;59.400;17.982;2022-08-16T21:06:23;24.48;;;13.48;;
50363;SDS011;36272;59.400;17.982;2022-08-16T21:11:25;20.33;;;12.57;;
50363;SDS011;36272;59.400;17.982;2022-08-16T21:16:28;21.00;;;12.13;;
50363;SDS011;36272;59.400;17.982;2022-08-16T21:21:30;24.08;;;13.02;;
50363;SDS011;36272;59.400;17.982;2022-08-16T21:26:32;18.05;;;12.43;;
50363;SDS011;36272;59.400;17.982;2022-08-16T21:31:35;22.35;;;12.70;;
50363;SDS011;36272;59.400;17.982;2022-08-16T21:36:36;24.73;;;13.40;;
50363;SDS011;36272;59.400;17.982;2022-08-16T21:41:38;20.10;;;12.43;;
50363;SDS011;36272;59.400;17.982;2022-08-16T21:46:39;24.58;;;12.57;;
50363;SDS011;36272;59.400;17.982;2022-08-16T21:51:41;20.08;;;12.00;;
50363;SDS011;36272;59.400;17.982;2022-08-16T21:56:43;22.10;;;13.63;;
50363;SDS011;36272;59.400;17.982;2022-08-16T22:01:44;22.67;;;13.77;;
50363;SDS011;36272;59.400;17.982;2022-08-16T22:06:46;19.52;;;12.73;;
50363;SDS011;36272;59.400;17.982;2022-08-16T22:11:48;21.77;;;12.65;;
50363;SDS011;36272;59.400;17.982;2022-08-16T22:16:50;20.50;;;13.82;;
50363;SDS011;36272;59.400;17.982;2022-08-16T22:21:51;24.83;;;13.52;;
50363;SDS011;36272;59.400;17.982;2022-08-16T22:26:53;27.75;;;13.88;;
50363;SDS011;36272;59.400;17.982;2022-08-16T22:31:55;24.42;;;13.88;;
50363;SDS011;36272;59.400;17.982;2022-08-16T22:36:57;20.95;;;13.43;;
50363;SDS011;36272;59.400;17.982;2022-08-16T22:42:04;25.13;;;14.45;;
50363;SDS011;36272;59.400;17.982;2022-08-16T22:47:08;20.17;;;14.20;;
50363;SDS011;36272;59.400;17.982;2022-08-16T22:52:10;23.52;;;13.90;;
50363;SDS011;36272;59.400;17.982;2022-08-16T22:57:11;22.60;;;13.40;;
50363;SDS011;36272;59.400;17.982;2022-08-16T23:02:14;17.30;;;13.27;;
50363;SDS011;36272;59.400;17.982;2022-08-16T23:07:15;29.75;;;14.48;;
50363;SDS011;36272;59.400;17.982;2022-08-16T23:12:17;19.27;;;13.20;;
50363;SDS011;36272;59.400;17.982;2022-08-16T23:17:20;23.50;;;14.15;;
50363;SDS011;36272;59.400;17.982;2022-08-16T23:22:21;20.27;;;13.63;;
50363;SDS011;36272;59.400;17.982;2022-08-16T23:27:23;23.30;;;13.55;;
50363;SDS011;36272;59.400;17.982;2022-08-16T23:32:24;22.35;;;13.88;;
50363;SDS011;36272;59.400;17.982;2022-08-16T23:37:26;28.27;;;14.82;;
50363;SDS011;36272;59.400;17.982;2022-08-16T23:42:28;26.90;;;15.18;;
50363;SDS011;36272;59.400;17.982;2022-08-16T23:47:30;23.75;;;15.73;;
50363;SDS011;36272;59.400;17.982;2022-08-16T23:52:32;26.88;;;14.65;;
50363;SDS011;36272;59.400;17.982;2022-08-16T23:57:33;32.72;;;15.07;;
